Peridot, Arizona
Current Conditions -  °F | °C
As of 4:51 PM on Sunday 21 Dec 2014 (Local Time) from KSAD Reporting Station
Clear Clear  
Wind Chill: 58°   Ceiling: Unl
Heat Index: 58°   Visibility: 10mi
Dew Point: 30°   Wind: 16mph
Humidity: 35%   Direction: 310°NW
Pressure: 30"   Gusts: NA
Location:  33.31°N, 110.46°W
Report Text: KSAD 212351Z AUTO 31014KT 10SM CLR 14/M01 A3000 RMK AO2 SLP148 T01441011 10156 20083 55005
Loading
Personal Weather Stations






























Interactive Weather Map New forecast layout! Learn more

10-Day Weather Forecast

Advertisements
Track Severe Weather on mobile